Time;durP1;ratioP1;P1;durP2;ratioP2;P2;SDS_P1;SDS_P2;PMS_P1;PMS_P2;Temp;Humidity;BMP_temperature;BMP_pressure;BME280_temperature;BME280_humidity;BME280_pressure;Samples;Min_cycle;Max_cycle;Signal;HPM_P1;HPM_P2
2024/03/25 00:01:32;;;;;;;0.20;0.20;;;;;;;7.84;70.82;100103.41;4916632;29;20513;-88
2024/03/25 00:03:58;;;;;;;0.20;0.20;;;;;;;7.84;71.06;100103.41;4916097;29;20032;-87
2024/03/25 00:06:23;;;;;;;0.20;0.20;;;;;;;7.87;71.81;100093.81;4916359;29;20030;-88
2024/03/25 00:08:49;;;;;;;0.20;0.20;;;;;;;7.94;71.95;100099.50;4932067;29;20031;-89
2024/03/25 00:11:14;;;;;;;0.20;0.20;;;;;;;7.82;70.57;100084.63;4916273;29;20032;-88
2024/03/25 00:13:40;;;;;;;0.20;0.20;;;;;;;7.44;71.84;100058.88;4931899;29;20082;-88
2024/03/25 00:16:06;;;;;;;0.20;0.20;;;;;;;7.67;71.66;100094.72;4932089;29;20031;-88
2024/03/25 00:18:32;;;;;;;0.20;0.20;;;;;;;7.57;71.74;100077.16;4931781;29;20034;-88
2024/03/25 00:20:57;;;;;;;0.20;0.20;;;;;;;7.59;71.99;100099.38;4915983;29;20020;-88
2024/03/25 00:23:23;;;;;;;0.20;0.20;;;;;;;7.71;71.17;100103.97;4916105;29;20035;-88
2024/03/25 00:25:48;;;;;;;0.20;0.20;;;;;;;7.58;71.61;100086.59;4916138;29;20419;-89
2024/03/25 00:28:14;;;;;;;0.20;0.20;;;;;;;7.72;72.16;100089.34;4916167;29;20028;-89
2024/03/25 00:30:40;;;;;;;0.20;0.20;;;;;;;7.58;71.93;100071.97;4915833;29;20509;-87
2024/03/25 00:33:06;;;;;;;0.20;0.20;;;;;;;7.70;71.49;100071.41;4931561;29;20044;-89
2024/03/25 00:35:32;;;;;;;0.13;0.13;;;;;;;7.74;71.35;100062.63;4915969;29;20524;-88
2024/03/25 00:37:58;;;;;;;0.20;0.20;;;;;;;7.79;71.47;100069.31;4916167;29;20042;-88
2024/03/25 00:40:24;;;;;;;0.20;0.20;;;;;;;7.72;70.77;100054.13;4916059;29;20549;-88
2024/03/25 00:42:49;;;;;;;0.20;0.20;;;;;;;7.72;71.32;100043.00;4933030;29;20310;-89
2024/03/25 00:45:16;;;;;;;0.20;0.20;;;;;;;7.70;71.33;100032.78;4933938;29;20036;-87
2024/03/25 00:47:41;;;;;;;0.20;0.20;;;;;;;7.76;71.36;100058.22;4919445;29;20024;-88
2024/03/25 00:50:08;;;;;;;0.20;0.20;;;;;;;7.75;71.24;100053.97;4919417;29;20040;-88
2024/03/25 00:52:34;;;;;;;0.20;0.20;;;;;;;7.70;70.34;100050.81;4919623;29;20027;-89
2024/03/25 00:55:00;;;;;;;0.20;0.20;;;;;;;7.63;70.54;100038.28;4935243;29;20050;-88
2024/03/25 00:57:25;;;;;;;0.20;0.20;;;;;;;7.73;70.89;100047.25;4919446;29;20028;-88
2024/03/25 00:59:51;;;;;;;0.20;0.20;;;;;;;7.67;71.82;100056.09;4935221;29;20083;-89
2024/03/25 01:02:17;;;;;;;0.20;0.20;;;;;;;7.77;70.28;100046.22;4934817;29;20494;-90
2024/03/25 01:04:43;;;;;;;0.20;0.20;;;;;;;7.76;71.26;100047.94;4919332;29;20474;-88
2024/03/25 01:07:08;;;;;;;0.20;0.20;;;;;;;7.87;70.92;100057.75;4934967;29;20028;-87
2024/03/25 01:09:34;;;;;;;0.20;0.20;;;;;;;7.62;70.82;100058.03;4934957;29;20478;-88
2024/03/25 01:11:59;;;;;;;0.10;0.10;;;;;;;7.67;70.88;100055.25;4934937;29;20502;-88
2024/03/25 01:14:26;;;;;;;0.10;0.10;;;;;;;7.74;71.02;100065.19;4934959;29;20529;-88
2024/03/25 01:16:51;;;;;;;0.20;0.20;;;;;;;7.71;70.53;100046.50;4918934;29;20027;-89
2024/03/25 01:19:17;;;;;;;0.20;0.20;;;;;;;7.75;71.17;100053.16;4934887;29;20031;-88
2024/03/25 01:21:44;;;;;;;0.20;0.20;;;;;;;7.83;70.58;100057.94;4934603;29;20111;-89
2024/03/25 01:24:09;;;;;;;0.20;0.20;;;;;;;7.83;70.18;100065.69;4934808;29;20118;-88
2024/03/25 01:26:35;;;;;;;0.20;0.20;;;;;;;7.74;70.35;100072.91;4918840;29;20176;-88
2024/03/25 01:29:00;;;;;;;0.20;0.20;;;;;;;7.73;70.12;100068.69;4934759;29;20031;-88
2024/03/25 01:31:26;;;;;;;0.20;0.20;;;;;;;7.76;69.84;100071.09;4918475;29;20039;-88
2024/03/25 01:33:51;;;;;;;0.20;0.20;;;;;;;7.63;70.21;100069.16;4933944;29;20058;-88
2024/03/25 01:36:17;;;;;;;0.20;0.20;;;;;;;7.71;70.03;100078.22;4934606;29;20060;-87
2024/03/25 01:38:46;;;;;;;0.20;0.20;;;;;;;7.72;69.83;100064.44;4934532;29;20031;-88
2024/03/25 01:41:12;;;;;;;0.20;0.20;;;;;;;7.76;69.58;100078.81;4934193;29;20494;-88
2024/03/25 01:43:38;;;;;;;0.20;0.20;;;;;;;7.63;70.33;100075.16;4918663;29;20074;-88
2024/03/25 01:46:05;;;;;;;0.20;0.20;;;;;;;7.48;70.16;100070.72;4918409;29;20028;-87
2024/03/25 01:48:30;;;;;;;0.20;0.20;;;;;;;7.58;70.17;100092.56;4918792;29;20064;-89
2024/03/25 01:50:56;;;;;;;0.20;0.20;;;;;;;7.41;70.04;100039.25;4918405;29;20036;-89
2024/03/25 01:53:21;;;;;;;0.20;0.20;;;;;;;7.72;69.77;100086.78;4933976;29;20047;-89
2024/03/25 01:55:48;;;;;;;0.20;0.20;;;;;;;7.46;69.82;100051.91;4917605;29;20042;-88
2024/03/25 01:58:13;;;;;;;0.20;0.20;;;;;;;7.61;69.28;100071.81;4918580;29;20454;-88
2024/03/25 02:00:39;;;;;;;0.20;0.20;;;;;;;7.45;69.75;100055.38;4933700;29;20087;-88
2024/03/25 02:03:04;;;;;;;0.20;0.20;;;;;;;7.64;69.02;100079.41;4934239;29;20039;-89
2024/03/25 02:05:30;;;;;;;0.20;0.20;;;;;;;7.71;69.19;100078.22;4934059;29;20166;-88
2024/03/25 02:07:56;;;;;;;0.20;0.20;;;;;;;7.65;68.44;100078.47;4933920;29;20067;-89
2024/03/25 02:10:21;;;;;;;0.20;0.20;;;;;;;7.55;68.48;100046.34;4918015;29;20090;-90
2024/03/25 02:12:47;;;;;;;0.20;0.20;;;;;;;7.67;69.14;100068.97;4933889;29;20039;-88
2024/03/25 02:15:15;;;;;;;0.20;0.20;;;;;;;7.70;67.45;100060.28;4933554;29;20486;-88
2024/03/25 02:17:41;;;;;;;0.20;0.20;;;;;;;7.71;67.57;100072.25;4918094;29;20134;-88
2024/03/25 02:20:10;;;;;;;0.20;0.20;;;;;;;7.77;67.28;100079.69;4918070;29;20494;-88
2024/03/25 02:22:38;;;;;;;0.20;0.20;;;;;;;7.79;67.41;100080.44;4918865;29;20027;-89
2024/03/25 02:25:06;;;;;;;0.20;0.20;;;;;;;7.58;66.98;100059.09;4918194;29;20383;-88
2024/03/25 02:27:32;;;;;;;0.20;0.20;;;;;;;7.57;67.25;100047.13;4933303;29;20036;-88
2024/03/25 02:30:08;;;;;;;0.20;0.20;;;;;;;7.73;67.62;100076.41;4933300;29;20054;-87
2024/03/25 02:32:34;;;;;;;0.20;0.20;;;;;;;7.76;67.46;100071.09;4917729;29;20052;-89
2024/03/25 02:35:00;;;;;;;0.20;0.20;;;;;;;7.89;66.94;100083.44;4933780;29;20565;-89
2024/03/25 02:37:25;;;;;;;0.20;0.20;;;;;;;7.79;66.63;100085.59;4917614;29;20027;-90
2024/03/25 02:39:52;;;;;;;0.20;0.20;;;;;;;7.77;66.83;100084.84;4917774;29;20478;-89
2024/03/25 02:42:19;;;;;;;0.20;0.20;;;;;;;7.79;66.89;100088.16;4934529;29;20031;-86
2024/03/25 02:44:45;;;;;;;0.20;0.20;;;;;;;7.66;66.29;100099.91;4933137;29;20032;-89
2024/03/25 02:47:11;;;;;;;0.20;0.20;;;;;;;7.56;66.84;100084.06;4933298;29;20039;-88
2024/03/25 02:49:37;;;;;;;0.20;0.20;;;;;;;7.54;66.18;100074.72;4933334;29;20031;-88
2024/03/25 02:52:02;;;;;;;0.20;0.20;;;;;;;7.60;66.37;100097.63;4933218;29;20109;-87
2024/03/25 02:54:28;;;;;;;0.20;0.20;;;;;;;7.58;67.13;100100.28;4917460;29;20032;-88
2024/03/25 02:56:53;;;;;;;0.20;0.20;;;;;;;7.55;66.21;100095.25;4917461;29;20095;-88
2024/03/25 02:59:19;;;;;;;0.20;0.20;;;;;;;7.54;66.51;100100.47;4932854;29;20024;-89
2024/03/25 03:01:44;;;;;;;0.20;0.20;;;;;;;7.58;66.44;100102.03;4917346;29;20043;-89
2024/03/25 03:04:10;;;;;;;0.20;0.20;;;;;;;7.52;67.08;100100.53;4933089;29;20031;-88
2024/03/25 03:06:35;;;;;;;0.20;0.20;;;;;;;7.42;67.22;100100.13;4932964;29;20655;-88
2024/03/25 03:09:01;;;;;;;0.20;0.20;;;;;;;7.47;66.86;100112.78;4931771;29;20520;-89
2024/03/25 03:11:27;;;;;;;0.20;0.20;;;;;;;7.29;67.24;100085.31;4916934;29;20413;-88
2024/03/25 03:13:52;;;;;;;0.10;0.10;;;;;;;7.33;68.27;100110.81;4932518;29;20031;-90
2024/03/25 03:16:18;;;;;;;0.17;0.17;;;;;;;7.36;67.88;100091.81;4917243;29;20110;-88
2024/03/25 03:18:43;;;;;;;0.20;0.20;;;;;;;7.32;67.66;100116.03;4933019;29;20402;-88
2024/03/25 03:21:09;;;;;;;0.20;0.20;;;;;;;7.26;67.91;100106.81;4916707;29;20422;-89
2024/03/25 03:23:34;;;;;;;0.20;0.20;;;;;;;7.15;68.94;100098.75;4933080;29;20486;-88
2024/03/25 03:26:00;;;;;;;0.20;0.20;;;;;;;7.33;68.91;100117.69;4932833;29;20513;-89
2024/03/25 03:28:28;;;;;;;0.20;0.20;;;;;;;7.42;68.11;100128.44;4932487;29;20031;-88
2024/03/25 03:30:53;;;;;;;0.20;0.20;;;;;;;7.44;67.91;100120.63;4917162;29;20036;-87
2024/03/25 03:33:19;;;;;;;0.20;0.20;;;;;;;7.44;67.92;100115.50;4933514;29;20414;-88
2024/03/25 03:35:44;;;;;;;0.20;0.20;;;;;;;7.50;67.93;100098.94;4917091;29;20023;-89
2024/03/25 03:38:10;;;;;;;0.20;0.20;;;;;;;7.54;68.20;100121.06;4932487;29;20509;-89
2024/03/25 03:40:35;;;;;;;0.20;0.20;;;;;;;7.53;68.13;100109.94;4916852;29;20458;-89
2024/03/25 03:43:01;;;;;;;0.20;0.20;;;;;;;7.64;67.57;100114.59;4932308;29;20035;-88
2024/03/25 03:45:27;;;;;;;0.20;0.20;;;;;;;7.51;68.14;100116.06;4916678;29;20050;-90
2024/03/25 03:47:52;;;;;;;0.20;0.20;;;;;;;7.24;68.52;100089.78;4916860;29;20062;-88
2024/03/25 03:50:18;;;;;;;0.20;0.20;;;;;;;7.24;68.84;100118.09;4932498;29;20095;-88
2024/03/25 03:52:43;;;;;;;0.20;0.20;;;;;;;7.20;68.81;100107.13;4916610;29;20498;-88
2024/03/25 03:55:09;;;;;;;0.20;0.20;;;;;;;7.32;68.78;100118.59;4932211;29;20486;-90
2024/03/25 03:57:34;;;;;;;0.10;0.10;;;;;;;7.13;69.05;100129.69;4916291;29;20036;-87
2024/03/25 04:00:00;;;;;;;0.20;0.20;;;;;;;7.23;68.65;100134.44;4916692;29;20123;-88
2024/03/25 04:02:28;;;;;;;0.20;0.20;;;;;;;7.11;69.29;100153.81;4916504;29;20493;-89
2024/03/25 04:04:53;;;;;;;0.20;0.20;;;;;;;7.10;69.13;100163.25;4933732;29;20036;-90
2024/03/25 04:07:19;;;;;;;0.20;0.20;;;;;;;7.13;69.10;100157.97;4916344;29;20179;-83
2024/03/25 04:09:44;;;;;;;0.20;0.20;;;;;;;7.16;68.93;100165.56;4931987;29;20036;-84
2024/03/25 04:12:10;;;;;;;0.20;0.20;;;;;;;7.12;69.35;100155.47;4915847;29;20063;-84
2024/03/25 04:14:36;;;;;;;0.20;0.20;;;;;;;7.18;69.50;100175.81;4916212;29;20043;-83
2024/03/25 04:17:02;;;;;;;0.20;0.20;;;;;;;7.06;69.22;100174.56;4916255;29;20023;-90
2024/03/25 04:19:28;;;;;;;0.20;0.20;;;;;;;7.01;69.75;100183.38;4933381;29;20048;-89
2024/03/25 04:21:54;;;;;;;0.10;0.10;;;;;;;7.12;69.54;100187.19;4936139;29;20028;-89
2024/03/25 04:24:19;;;;;;;0.20;0.20;;;;;;;7.05;69.23;100188.31;4935926;29;20038;-88
2024/03/25 04:26:46;;;;;;;0.20;0.20;;;;;;;7.04;69.44;100183.25;4919541;29;20051;-89
2024/03/25 04:29:11;;;;;;;0.20;0.20;;;;;;;7.09;69.68;100197.59;4920066;29;20043;-89
2024/03/25 04:31:37;;;;;;;0.20;0.20;;;;;;;6.88;69.95;100183.91;4920198;29;20032;-89
2024/03/25 04:34:04;;;;;;;0.20;0.20;;;;;;;7.04;70.16;100202.09;4920174;29;20130;-88
2024/03/25 04:36:30;;;;;;;0.20;0.20;;;;;;;6.83;69.59;100179.81;4933295;29;20031;-88
2024/03/25 04:38:56;;;;;;;0.20;0.20;;;;;;;6.89;69.81;100215.59;4919797;29;20530;-89
2024/03/25 04:41:21;;;;;;;0.20;0.20;;;;;;;6.91;69.23;100203.50;4935000;29;20493;-89
2024/03/25 04:43:47;;;;;;;0.20;0.20;;;;;;;7.03;69.44;100226.13;4935866;29;20110;-88
2024/03/25 04:46:12;;;;;;;0.20;0.20;;;;;;;7.12;68.78;100223.19;4920040;29;20027;-90
2024/03/25 04:48:38;;;;;;;0.20;0.20;;;;;;;7.15;69.75;100212.75;4919623;29;20035;-89
2024/03/25 04:51:03;;;;;;;0.20;0.20;;;;;;;7.23;68.84;100232.19;4950884;29;20036;-88
2024/03/25 04:53:29;;;;;;;0.20;0.20;;;;;;;7.19;68.60;100229.75;4919771;29;20031;-90
2024/03/25 04:55:54;;;;;;;0.20;0.20;;;;;;;7.20;68.89;100233.19;4919237;29;20486;-90
2024/03/25 04:58:20;;;;;;;0.20;0.20;;;;;;;7.17;68.19;100235.84;4935426;29;20507;-90
2024/03/25 05:00:45;;;;;;;0.20;0.20;;;;;;;7.22;67.75;100245.97;4934954;29;20485;-83
2024/03/25 05:03:11;;;;;;;0.20;0.20;;;;;;;7.06;68.80;100238.88;4918571;29;20502;-85
2024/03/25 05:05:36;;;;;;;0.20;0.20;;;;;;;7.22;68.11;100253.69;4935822;29;20537;-85
2024/03/25 05:08:03;;;;;;;0.20;0.20;;;;;;;7.28;68.09;100256.84;4935116;29;20450;-84
2024/03/25 05:10:29;;;;;;;0.20;0.20;;;;;;;7.22;68.01;100253.69;4935917;29;20034;-87
2024/03/25 05:12:55;;;;;;;0.20;0.20;;;;;;;7.22;67.96;100264.81;4917238;29;20687;-85
2024/03/25 05:15:21;;;;;;;0.20;0.20;;;;;;;7.13;67.95;100250.59;4933808;29;20117;-82
2024/03/25 05:17:46;;;;;;;0.20;0.20;;;;;;;7.08;68.15;100220.78;4935326;29;20482;-89
2024/03/25 05:20:12;;;;;;;0.20;0.20;;;;;;;7.18;68.78;100256.41;4932790;29;20658;-87
2024/03/25 05:22:38;;;;;;;0.20;0.20;;;;;;;7.30;67.58;100273.06;4949833;29;20035;-87
2024/03/25 05:25:03;;;;;;;0.20;0.20;;;;;;;7.11;68.15;100252.38;4948789;28;20123;-87
2024/03/25 05:27:29;;;;;;;0.20;0.20;;;;;;;7.22;67.97;100269.13;4933545;29;20040;-88
2024/03/25 05:29:54;;;;;;;0.20;0.20;;;;;;;6.94;68.31;100239.38;4950190;29;20059;-91
2024/03/25 05:32:21;;;;;;;0.20;0.20;;;;;;;7.12;67.43;100266.09;4933139;29;20110;-91
2024/03/25 05:34:48;;;;;;;0.20;0.20;;;;;;;7.08;68.06;100278.25;4934131;29;20031;-89
2024/03/25 05:37:13;;;;;;;0.20;0.20;;;;;;;7.15;67.38;100283.97;4918896;29;20036;-88
2024/03/25 05:39:39;;;;;;;0.20;0.20;;;;;;;7.06;68.15;100285.16;4918545;29;20112;-94
2024/03/25 05:42:04;;;;;;;0.20;0.20;;;;;;;6.83;67.41;100251.81;4919264;29;20110;-90
2024/03/25 05:44:30;;;;;;;0.20;0.20;;;;;;;6.97;67.32;100269.25;4935044;29;20039;-91
2024/03/25 05:46:55;;;;;;;0.20;0.20;;;;;;;7.16;68.26;100299.31;4934625;29;20490;-84
2024/03/25 05:49:21;;;;;;;0.20;0.20;;;;;;;6.96;67.93;100265.84;4933580;29;20505;-84
2024/03/25 05:51:47;;;;;;;0.20;0.20;;;;;;;7.13;68.04;100296.06;4934559;29;20039;-91
2024/03/25 05:54:13;;;;;;;0.20;0.20;;;;;;;7.12;68.08;100304.69;4932973;29;20051;-88
2024/03/25 05:56:38;;;;;;;0.20;0.20;;;;;;;7.17;67.10;100308.72;4949654;29;20079;-85
2024/03/25 05:59:04;;;;;;;0.20;0.20;;;;;;;7.15;67.56;100289.94;4921764;28;20064;-91
2024/03/25 06:01:29;;;;;;;0.20;0.20;;;;;;;7.24;67.37;100311.06;4932204;29;20039;-83
2024/03/25 06:03:55;;;;;;;0.20;0.20;;;;;;;7.35;67.33;100317.44;4923088;29;20024;-85
2024/03/25 06:06:21;;;;;;;0.20;0.20;;;;;;;7.56;67.44;100320.88;4905688;29;20088;-86
2024/03/25 06:08:46;;;;;;;0.20;0.20;;;;;;;7.73;66.39;100321.00;4930562;29;20084;-91
2024/03/25 06:11:12;;;;;;;0.20;0.20;;;;;;;7.88;66.21;100319.53;4930399;29;20043;-85
2024/03/25 06:13:38;;;;;;;0.20;0.20;;;;;;;7.91;65.21;100316.84;4917250;29;20047;-88
2024/03/25 06:16:03;;;;;;;0.20;0.20;;;;;;;8.07;65.12;100311.03;4931282;29;20038;-89
2024/03/25 06:18:29;;;;;;;0.20;0.20;;;;;;;8.21;65.36;100288.91;4900721;29;20036;-88
2024/03/25 06:20:54;;;;;;;0.20;0.20;;;;;;;8.36;63.70;100310.63;4931697;29;20071;-84
2024/03/25 06:23:23;;;;;;;0.20;0.20;;;;;;;8.53;63.21;100320.16;4948362;29;20422;-94
2024/03/25 06:25:50;;;;;;;0.20;0.20;;;;;;;8.58;62.30;100297.59;4950862;29;20036;-86
2024/03/25 06:28:15;;;;;;;0.20;0.20;;;;;;;8.76;61.38;100317.38;4935087;29;20071;-90
2024/03/25 06:36:09;;;;;;;0.20;0.20;;;;;;;9.09;60.60;100334.75;4944874;28;20038;-92
2024/03/25 06:38:34;;;;;;;0.20;0.20;;;;;;;9.05;59.16;100335.81;4917342;29;20491;-85
2024/03/25 06:41:00;;;;;;;0.20;0.20;;;;;;;9.14;60.00;100337.94;4932281;29;20027;-83
2024/03/25 06:43:25;;;;;;;0.20;0.20;;;;;;;9.18;59.56;100324.84;4931755;29;20493;-91
2024/03/25 06:45:51;;;;;;;0.20;0.20;;;;;;;9.31;58.51;100331.97;4933817;29;20489;-91
2024/03/25 06:48:16;;;;;;;0.20;0.20;;;;;;;9.39;58.70;100330.69;4932234;29;20569;-85
2024/03/25 06:50:42;;;;;;;0.20;0.20;;;;;;;9.60;59.88;100336.56;4932556;29;20501;-82
2024/03/25 06:53:07;;;;;;;0.20;0.20;;;;;;;9.74;59.40;100349.63;4932023;29;20095;-81
2024/03/25 06:55:33;;;;;;;0.20;0.20;;;;;;;9.77;57.56;100346.06;4932262;29;20040;-85
2024/03/25 06:57:58;;;;;;;0.20;0.20;;;;;;;9.91;56.58;100363.44;4933048;29;20031;-89
2024/03/25 07:00:24;;;;;;;0.20;0.20;;;;;;;9.88;55.79;100346.34;4917831;28;20123;-92
2024/03/25 07:02:49;;;;;;;0.20;0.20;;;;;;;10.00;55.17;100362.97;4932152;29;20027;-81
2024/03/25 07:05:15;;;;;;;0.20;0.20;;;;;;;10.06;54.77;100358.34;4915352;29;20039;-79
2024/03/25 07:07:40;;;;;;;0.20;0.20;;;;;;;10.15;53.48;100356.22;4932468;29;20130;-86
2024/03/25 07:10:06;;;;;;;0.20;0.20;;;;;;;10.26;54.33;100385.78;4933914;29;20035;-91
2024/03/25 07:12:32;;;;;;;0.20;0.20;;;;;;;10.25;53.03;100386.72;4932437;29;20489;-88
2024/03/25 07:14:57;;;;;;;0.20;0.20;;;;;;;10.18;52.75;100379.31;4931683;29;20107;-89
2024/03/25 07:17:23;;;;;;;0.20;0.20;;;;;;;10.17;53.60;100385.41;4932889;29;20507;-87
2024/03/25 07:19:49;;;;;;;0.20;0.20;;;;;;;10.36;54.79;100396.50;4931724;29;20039;-88
2024/03/25 07:22:14;;;;;;;0.20;0.20;;;;;;;10.33;54.74;100399.25;4917241;29;20032;-90
2024/03/25 07:24:40;;;;;;;0.20;0.20;;;;;;;10.46;55.74;100389.09;4946015;28;20027;-84
2024/03/25 07:27:07;;;;;;;0.20;0.20;;;;;;;10.42;53.06;100370.34;4934205;29;20104;-92
2024/03/25 07:29:33;;;;;;;0.20;0.20;;;;;;;10.52;53.47;100396.53;4934985;29;20024;-87
2024/03/25 07:31:58;;;;;;;0.20;0.20;;;;;;;10.65;52.49;100394.97;4917463;29;20062;-92
2024/03/25 07:34:24;;;;;;;0.20;0.20;;;;;;;10.59;52.80;100398.72;4916284;29;20043;-92
2024/03/25 07:36:50;;;;;;;0.20;0.20;;;;;;;10.49;51.73;100381.19;4916061;29;20054;-83
2024/03/25 07:39:16;;;;;;;0.20;0.20;;;;;;;10.53;51.92;100409.41;4915649;29;20034;-87
2024/03/25 07:41:41;;;;;;;0.20;0.20;;;;;;;10.29;52.29;100375.28;4933063;29;20028;-88
2024/03/25 07:44:07;;;;;;;0.20;0.20;;;;;;;10.31;53.16;100406.22;4932482;29;20043;-83
2024/03/25 07:46:32;;;;;;;0.20;0.20;;;;;;;10.32;53.95;100418.25;4915279;29;20039;-86
2024/03/25 07:48:58;;;;;;;0.20;0.20;;;;;;;10.39;53.29;100414.44;4931088;29;20047;-86
2024/03/25 07:51:23;;;;;;;0.20;0.20;;;;;;;10.49;52.81;100420.81;4932885;29;20031;-88
2024/03/25 07:53:49;;;;;;;0.20;0.20;;;;;;;10.26;53.50;100380.63;4937617;29;20073;-86
2024/03/25 07:56:17;;;;;;;0.20;0.20;;;;;;;10.54;52.45;100423.16;4950504;29;20430;-87
2024/03/25 07:58:43;;;;;;;0.20;0.20;;;;;;;10.75;52.22;100436.72;4936886;29;20051;-85
2024/03/25 08:01:08;;;;;;;0.20;0.20;;;;;;;10.74;52.03;100391.06;4911025;29;20205;-84
2024/03/25 08:03:34;;;;;;;0.20;0.20;;;;;;;11.05;51.83;100429.91;4939362;29;20461;-91
2024/03/25 08:06:00;;;;;;;0.20;0.20;;;;;;;11.14;51.53;100432.00;4938156;29;20024;-87
2024/03/25 08:08:25;;;;;;;0.20;0.20;;;;;;;11.03;51.59;100438.69;4938992;29;20032;-85
2024/03/25 08:10:52;;;;;;;0.20;0.20;;;;;;;10.79;50.98;100427.88;4937105;29;20027;-84
2024/03/25 08:13:19;;;;;;;0.20;0.20;;;;;;;10.98;50.58;100459.63;4935370;29;20046;-83
2024/03/25 08:15:45;;;;;;;0.20;0.20;;;;;;;10.78;50.60;100459.84;4922848;29;20809;-86
2024/03/25 08:18:11;;;;;;;0.20;0.20;;;;;;;11.09;50.79;100467.66;4938015;29;20024;-91
2024/03/25 08:20:36;;;;;;;0.20;0.20;;;;;;;11.12;50.32;100440.78;4926550;29;20036;-88
2024/03/25 08:23:02;;;;;;;0.20;0.20;;;;;;;11.26;50.38;100459.00;4947305;29;20031;-89
2024/03/25 08:25:27;;;;;;;0.20;0.20;;;;;;;11.34;48.90;100467.19;4940195;29;20032;-93
2024/03/25 08:27:53;;;;;;;0.20;0.20;;;;;;;11.08;51.05;100424.56;4928265;28;20062;-83
2024/03/25 08:30:18;;;;;;;0.20;0.20;;;;;;;10.94;49.02;100445.19;4938115;29;20066;-86
2024/03/25 08:32:44;;;;;;;0.20;0.20;;;;;;;11.04;49.88;100446.38;4939400;29;20110;-90
2024/03/25 08:35:09;;;;;;;0.20;0.20;;;;;;;11.10;51.41;100446.03;4937436;29;20091;-85
2024/03/25 08:37:35;;;;;;;0.20;0.20;;;;;;;10.93;50.70;100432.34;4953701;29;20042;-85
2024/03/25 08:40:00;;;;;;;0.20;0.20;;;;;;;11.19;50.42;100453.28;4934866;29;20028;-91
2024/03/25 08:42:26;;;;;;;0.20;0.20;;;;;;;11.27;49.97;100465.00;4938154;29;20038;-92
2024/03/25 08:44:51;;;;;;;0.20;0.20;;;;;;;11.45;48.84;100454.47;4956371;29;20105;-85
2024/03/25 08:47:17;;;;;;;0.20;0.20;;;;;;;11.54;49.19;100455.72;4938158;29;20055;-89
2024/03/25 08:49:42;;;;;;;0.20;0.20;;;;;;;11.70;49.19;100459.16;4954677;28;20035;-90
2024/03/25 08:52:08;;;;;;;0.20;0.20;;;;;;;11.72;48.26;100446.94;4950887;29;20032;-85
2024/03/25 08:54:34;;;;;;;0.20;0.20;;;;;;;11.77;47.76;100439.72;4937602;29;20042;-84
2024/03/25 08:57:00;;;;;;;0.20;0.20;;;;;;;11.75;47.42;100451.94;4936400;29;20602;-88
2024/03/25 08:59:25;;;;;;;0.20;0.20;;;;;;;11.88;47.35;100457.28;4928742;29;20051;-87
2024/03/25 09:01:51;;;;;;;0.20;0.20;;;;;;;11.78;46.94;100451.75;4920232;29;20036;-87
2024/03/25 09:04:19;;;;;;;0.20;0.20;;;;;;;11.95;45.77;100462.94;4938009;29;20513;-90
2024/03/25 09:06:45;;;;;;;0.20;0.20;;;;;;;12.04;46.40;100465.03;4934571;29;20031;-92
2024/03/25 09:11:55;;;;;;;0.20;0.20;;;;;;;12.11;45.26;100461.16;4947338;28;20035;-91
2024/03/25 09:14:20;;;;;;;0.20;0.20;;;;;;;11.94;45.59;100454.34;4933944;29;20486;-89
2024/03/25 09:16:46;;;;;;;0.20;0.20;;;;;;;12.01;44.32;100453.09;4934204;29;20079;-84
2024/03/25 09:19:11;;;;;;;0.20;0.20;;;;;;;12.04;44.60;100441.69;4934381;29;20040;-88
2024/03/25 09:21:37;;;;;;;0.20;0.20;;;;;;;12.32;44.58;100444.34;4933031;29;20032;-83
2024/03/25 09:24:03;;;;;;;0.20;0.20;;;;;;;12.00;45.09;100432.44;4949493;29;20028;-89
2024/03/25 09:26:28;;;;;;;0.20;0.20;;;;;;;12.13;44.27;100455.88;4933536;29;20024;-85
2024/03/25 09:28:54;;;;;;;0.20;0.20;;;;;;;12.12;43.84;100459.41;4932527;29;20035;-91
2024/03/25 09:31:19;;;;;;;0.20;0.20;;;;;;;11.85;43.26;100448.84;4933577;29;20043;-85
2024/03/25 09:33:45;;;;;;;0.20;0.20;;;;;;;11.77;43.21;100450.06;4933739;29;20056;-87
2024/03/25 09:36:11;;;;;;;0.20;0.20;;;;;;;11.89;44.12;100452.91;4918530;29;20028;-86
2024/03/25 09:38:36;;;;;;;0.20;0.20;;;;;;;11.81;43.56;100449.97;4925531;29;20070;-85
2024/03/25 09:41:02;;;;;;;0.20;0.20;;;;;;;12.11;44.15;100443.00;4936555;29;20094;-84
2024/03/25 09:43:43;;;;;;;0.20;0.20;;;;;;;12.51;42.14;100440.66;4942189;29;20042;-84
2024/03/25 09:46:09;;;;;;;0.22;0.22;;;;;;;12.79;40.86;100440.66;4913099;29;20043;-89
2024/03/25 09:48:34;;;;;;;0.20;0.20;;;;;;;12.85;40.39;100448.06;4922214;29;20123;-84
2024/03/25 09:51:00;;;;;;;0.20;0.20;;;;;;;12.93;40.22;100437.22;4931984;29;20091;-83
2024/03/25 09:53:26;;;;;;;0.20;0.20;;;;;;;12.88;40.72;100449.63;4934589;29;20031;-91
2024/03/25 09:55:51;;;;;;;0.20;0.20;;;;;;;12.84;40.50;100454.19;4934262;29;20027;-85
2024/03/25 09:58:17;;;;;;;0.20;0.20;;;;;;;12.84;39.59;100459.38;4934860;29;20055;-88
2024/03/25 10:00:43;;;;;;;0.20;0.20;;;;;;;12.82;40.29;100443.06;4913420;28;20056;-91
2024/03/25 10:03:08;;;;;;;0.20;0.20;;;;;;;12.73;39.90;100447.97;4932134;29;20034;-84
2024/03/25 10:05:34;;;;;;;0.20;0.20;;;;;;;12.91;39.33;100455.50;4920225;29;20032;-92
2024/03/25 10:08:00;;;;;;;0.22;0.22;;;;;;;12.72;40.08;100460.13;4932418;29;20503;-87
2024/03/25 10:10:25;;;;;;;0.20;0.20;;;;;;;12.95;40.68;100463.09;4949253;29;20447;-84
2024/03/25 10:12:51;;;;;;;0.20;0.20;;;;;;;12.65;40.56;100474.41;4947763;29;20409;-85
2024/03/25 10:15:16;;;;;;;0.20;0.20;;;;;;;12.61;40.75;100457.34;4947587;29;20426;-92
2024/03/25 10:17:44;;;;;;;0.20;0.20;;;;;;;12.77;40.83;100467.63;4917695;29;20034;-85
2024/03/25 10:20:14;;;;;;;0.20;0.20;;;;;;;12.72;40.60;100460.13;4918707;29;20043;-88
2024/03/25 10:22:46;;;;;;;0.20;0.20;;;;;;;12.83;39.82;100472.47;4917555;29;20035;-90
2024/03/25 10:25:27;;;;;;;0.20;0.20;;;;;;;13.08;40.60;100482.19;4933148;29;20046;-86
2024/03/25 10:28:02;;;;;;;0.20;0.20;;;;;;;13.28;41.08;100466.25;4932368;29;20036;-89
2024/03/25 10:30:28;;;;;;;0.20;0.20;;;;;;;13.29;40.15;100475.69;4932757;29;20122;-92
2024/03/25 10:33:00;;;;;;;0.20;0.20;;;;;;;13.19;38.65;100461.63;4932497;29;20138;-86
2024/03/25 10:35:27;;;;;;;0.20;0.20;;;;;;;13.39;38.97;100461.19;4928614;29;20056;-87
2024/03/25 10:37:55;;;;;;;0.20;0.20;;;;;;;13.69;39.54;100463.59;4899553;29;20503;-92
2024/03/25 10:40:22;;;;;;;0.20;0.20;;;;;;;13.72;40.25;100472.97;4899371;29;20028;-83
2024/03/25 10:42:47;;;;;;;0.20;0.20;;;;;;;13.67;39.04;100465.47;4897536;29;20103;-83
2024/03/25 10:45:14;;;;;;;0.20;0.20;;;;;;;13.47;38.91;100474.53;4904874;29;20115;-93
2024/03/25 10:47:39;;;;;;;0.20;0.20;;;;;;;13.32;39.86;100474.66;4936831;29;20035;-93
2024/03/25 10:50:09;;;;;;;0.20;0.20;;;;;;;13.39;39.24;100471.59;4936355;29;20095;-94
2024/03/25 10:52:35;;;;;;;0.20;0.20;;;;;;;13.33;39.08;100484.94;4916546;29;20114;-89
2024/03/25 10:55:00;;;;;;;0.20;0.20;;;;;;;13.02;40.00;100456.59;4932275;29;20606;-88
2024/03/25 10:57:26;;;;;;;0.20;0.20;;;;;;;13.29;39.21;100473.09;4933487;29;20071;-91
2024/03/25 10:59:51;;;;;;;0.20;0.20;;;;;;;13.28;37.57;100487.03;4898305;28;20100;-92
2024/03/25 11:02:20;;;;;;;0.20;0.20;;;;;;;13.38;37.42;100474.28;4898560;29;20506;-89
2024/03/25 11:04:45;;;;;;;0.20;0.20;;;;;;;13.56;37.31;100487.84;4917470;29;20063;-91
2024/03/25 11:07:12;;;;;;;0.20;0.20;;;;;;;13.46;37.78;100465.06;4932224;29;20040;-83
2024/03/25 11:09:38;;;;;;;0.20;0.20;;;;;;;13.40;36.95;100456.84;4932644;29;20131;-85
2024/03/25 11:12:04;;;;;;;0.20;0.20;;;;;;;13.72;35.87;100497.19;4933297;29;20057;-93
2024/03/25 11:14:31;;;;;;;0.20;0.20;;;;;;;13.55;36.39;100481.84;4932784;29;20135;-82
2024/03/25 11:16:57;;;;;;;0.20;0.20;;;;;;;13.62;37.90;100474.50;4932651;29;20067;-90
2024/03/25 11:19:26;;;;;;;0.20;0.20;;;;;;;13.55;38.77;100473.19;4943685;28;20063;-86
2024/03/25 11:21:51;;;;;;;0.20;0.20;;;;;;;13.65;38.80;100466.47;4941046;29;20035;-86
2024/03/25 11:24:28;;;;;;;0.20;0.20;;;;;;;13.78;39.45;100470.81;4942084;29;20433;-90
2024/03/25 11:26:53;;;;;;;0.20;0.20;;;;;;;14.09;37.33;100460.19;4914989;29;20032;-85
2024/03/25 11:29:19;;;;;;;0.20;0.20;;;;;;;14.09;36.49;100460.19;4932557;29;20514;-88
2024/03/25 11:31:44;;;;;;;0.20;0.20;;;;;;;13.97;34.82;100473.06;4933588;29;20083;-91